< < Back
Terminal Aerodrome Forecast


Current Version              Previous Versions:   1  2  3  4  5  6  7  8  9  

Terminal Aerodrome Forecast

937
FTUS42 KFFC 012136 AAB
TAFATL
TAF AMD
KATL 012136Z 0122/0224 09008KT P6SM FEW060
     FM020100 35006KT P6SM FEW250
     FM021200 05005KT P6SM FEW250
     FM021600 07008KT P6SM SCT040=

Latest METAR

664
SAUS70 KWBC 020600
MTRATL
METAR KATL 020552Z 01007KT 10SM CLR 27/15 A2995 RMK AO2 SLP129 T02670150
10300 20250 58006 $


USA.gov is the U.S. government's official web portal to all federal, state and local government web resources and services.